createdAt,value
2023-02-06T00:02:08.668Z,6.81
2023-02-06T00:05:11.224Z,6.82
2023-02-06T00:08:15.140Z,6.82
2023-02-06T00:11:17.858Z,6.83
2023-02-06T00:14:20.438Z,6.82
2023-02-06T00:17:23.010Z,6.81
2023-02-06T00:20:25.589Z,6.81
2023-02-06T00:23:29.496Z,6.68
2023-02-06T00:26:32.308Z,6.81
2023-02-06T00:29:34.861Z,6.80
2023-02-06T00:32:37.482Z,6.78
2023-02-06T00:35:40.056Z,6.77
2023-02-06T00:38:43.936Z,6.76
2023-02-06T00:41:46.477Z,6.77
2023-02-06T00:44:49.068Z,6.77
2023-02-06T00:47:51.662Z,6.76
2023-02-06T00:50:54.512Z,6.75
2023-02-06T00:53:58.429Z,6.75
2023-02-06T00:57:00.999Z,6.74
2023-02-06T01:00:03.648Z,6.74
2023-02-06T01:03:06.225Z,6.72
2023-02-06T01:06:08.836Z,6.71
2023-02-06T01:09:12.798Z,6.71
2023-02-06T01:12:15.336Z,6.69
2023-02-06T01:15:17.858Z,6.70
2023-02-06T01:18:20.439Z,6.70
2023-02-06T01:21:24.045Z,6.70
2023-02-06T01:24:28.044Z,6.70
2023-02-06T01:27:30.593Z,6.70
2023-02-06T01:30:33.310Z,6.69
2023-02-06T01:33:35.895Z,6.68
2023-02-06T01:36:38.492Z,6.70
2023-02-06T01:39:42.372Z,6.70
2023-02-06T01:42:45.010Z,6.69
2023-02-06T01:45:47.736Z,6.64
2023-02-06T01:48:51.751Z,6.67
2023-02-06T01:51:54.692Z,6.66
2023-02-06T01:55:00.123Z,6.65
2023-02-06T01:58:02.635Z,6.68
2023-02-06T02:01:05.925Z,6.67
2023-02-06T02:04:09.393Z,6.66
2023-02-06T02:07:13.536Z,6.63
2023-02-06T02:10:17.512Z,6.58
2023-02-06T02:13:20.044Z,6.55
2023-02-06T02:16:25.073Z,6.51
2023-02-06T02:20:13.374Z,6.48
2023-02-06T02:23:21.469Z,6.45
2023-02-06T02:26:47.942Z,6.45
2023-02-06T02:30:28.439Z,6.43
2023-02-06T02:34:05.673Z,6.38
2023-02-06T02:37:11.961Z,6.36
2023-02-06T02:40:19.210Z,6.36
2023-02-06T02:43:27.022Z,6.34
2023-02-06T02:46:31.891Z,6.31
2023-02-06T02:49:34.650Z,6.28
2023-02-06T02:52:38.597Z,6.27
2023-02-06T02:55:41.220Z,6.25
2023-02-06T02:58:43.752Z,6.22
2023-02-06T03:01:49.732Z,6.19
2023-02-06T03:04:53.595Z,6.14
2023-02-06T03:08:03.853Z,6.08
2023-02-06T03:11:10.301Z,6.07
2023-02-06T03:14:16.525Z,6.00
2023-02-06T03:17:20.785Z,6.04
2023-02-06T03:20:23.313Z,6.02
2023-02-06T03:23:29.636Z,6.02
2023-02-06T03:26:32.228Z,6.00
2023-02-06T03:29:35.169Z,5.98
2023-02-06T03:32:39.619Z,5.96
2023-02-06T03:35:42.240Z,5.93
2023-02-06T03:38:46.461Z,5.97
2023-02-06T03:41:49.068Z,5.98
2023-02-06T03:44:53.657Z,6.00
2023-02-06T03:47:57.295Z,6.00
2023-02-06T03:51:00.503Z,6.01
2023-02-06T03:54:05.168Z,6.02
2023-02-06T03:57:08.565Z,6.02
2023-02-06T04:00:12.469Z,6.02
2023-02-06T04:03:15.005Z,5.99
2023-02-06T04:06:17.581Z,5.93
2023-02-06T04:09:21.475Z,5.84
2023-02-06T04:12:24.084Z,5.77
2023-02-06T04:15:26.606Z,5.74
2023-02-06T04:18:29.126Z,5.72
2023-02-06T04:21:31.640Z,5.69
2023-02-06T04:24:36.705Z,5.66
2023-02-06T04:27:39.354Z,5.62
2023-02-06T04:30:42.082Z,5.60
2023-02-06T04:33:44.743Z,5.59
2023-02-06T04:36:47.342Z,5.59
2023-02-06T04:39:51.261Z,5.60
2023-02-06T04:42:53.792Z,5.58
2023-02-06T04:45:56.383Z,5.53
2023-02-06T04:48:58.911Z,5.62
2023-02-06T04:52:01.442Z,5.61
2023-02-06T04:55:05.558Z,5.61
2023-02-06T04:58:08.086Z,5.60
2023-02-06T05:01:10.669Z,5.61
2023-02-06T05:04:13.238Z,5.63
2023-02-06T05:07:15.791Z,5.64
2023-02-06T05:10:19.883Z,5.62
2023-02-06T05:13:22.387Z,5.61
2023-02-06T05:16:24.976Z,5.59
2023-02-06T05:19:27.565Z,5.58
2023-02-06T05:22:30.150Z,5.58
2023-02-06T05:25:35.164Z,5.37
2023-02-06T05:28:37.863Z,5.57
2023-02-06T05:31:40.623Z,5.55
2023-02-06T05:34:43.184Z,5.53
2023-02-06T05:37:45.743Z,5.53
2023-02-06T05:40:52.320Z,5.52
2023-02-06T05:43:54.875Z,5.51
2023-02-06T05:46:57.605Z,5.50
2023-02-06T05:50:00.194Z,5.48
2023-02-06T05:53:02.751Z,5.50
2023-02-06T05:56:07.262Z,5.49
2023-02-06T05:59:09.805Z,5.49
2023-02-06T06:02:12.382Z,5.49
2023-02-06T06:05:14.964Z,5.49
2023-02-06T06:08:17.524Z,5.45
2023-02-06T06:11:21.440Z,5.50
2023-02-06T06:14:24.001Z,5.51
2023-02-06T06:17:26.572Z,5.53
2023-02-06T06:20:29.160Z,5.54
2023-02-06T06:23:31.736Z,5.57
2023-02-06T06:26:35.662Z,5.57
2023-02-06T06:29:38.270Z,5.58
2023-02-06T06:32:40.856Z,5.58
2023-02-06T06:35:43.452Z,5.58
2023-02-06T06:38:46.078Z,5.56
2023-02-06T06:41:50.014Z,5.56
2023-02-06T06:44:52.551Z,5.53
2023-02-06T06:47:55.078Z,5.53
2023-02-06T06:50:57.617Z,5.52
2023-02-06T06:54:00.180Z,5.56
2023-02-06T06:57:04.129Z,5.56
2023-02-06T07:00:07.391Z,5.55
2023-02-06T07:03:11.623Z,5.53
2023-02-06T07:06:14.243Z,5.48
2023-02-06T07:09:17.057Z,5.37
2023-02-06T07:12:21.065Z,5.38
2023-02-06T07:15:23.683Z,5.35
2023-02-06T07:18:26.215Z,5.30
2023-02-06T07:21:28.844Z,5.30
2023-02-06T07:24:31.380Z,5.29
2023-02-06T07:27:35.300Z,5.27
2023-02-06T07:30:37.866Z,5.26
2023-02-06T07:33:40.441Z,5.28
2023-02-06T07:36:43.101Z,5.31
2023-02-06T07:39:45.673Z,5.27
2023-02-06T07:42:49.630Z,5.34
2023-02-06T07:45:52.237Z,5.36
2023-02-06T07:48:54.777Z,5.38
2023-02-06T07:51:57.389Z,5.39
2023-02-06T07:54:59.941Z,5.36
2023-02-06T07:58:03.877Z,5.31
2023-02-06T08:01:06.760Z,5.29
2023-02-06T08:04:09.383Z,5.31
2023-02-06T08:07:14.891Z,5.35
2023-02-06T08:10:17.834Z,5.39
2023-02-06T08:13:21.729Z,5.44
2023-02-06T08:16:24.608Z,5.50
2023-02-06T08:19:27.177Z,5.56
2023-02-06T08:22:29.730Z,5.62
2023-02-06T08:25:32.328Z,5.70
2023-02-06T08:28:36.366Z,5.73
2023-02-06T08:31:39.825Z,5.76
2023-02-06T08:34:42.516Z,5.80
2023-02-06T08:37:45.059Z,5.85
2023-02-06T08:40:47.588Z,5.89
2023-02-06T08:43:52.750Z,5.94
2023-02-06T08:47:08.879Z,6.23
2023-02-06T08:50:12.414Z,7.02
2023-02-06T08:53:14.953Z,7.89
2023-02-06T08:56:17.483Z,8.57
2023-02-06T08:59:21.363Z,9.07
2023-02-06T09:02:24.049Z,9.27
2023-02-06T09:05:26.677Z,9.23
2023-02-06T09:08:29.204Z,9.06
2023-02-06T09:11:31.943Z,9.20
2023-02-06T09:14:35.824Z,9.69
2023-02-06T09:17:38.329Z,10.24
2023-02-06T09:20:40.853Z,10.71
2023-02-06T09:23:44.385Z,11.09
2023-02-06T09:26:59.113Z,11.39
2023-02-06T09:30:04.371Z,11.64
2023-02-06T09:33:06.955Z,11.84
2023-02-06T09:36:11.061Z,11.96
2023-02-06T09:39:13.674Z,12.06
2023-02-06T09:42:26.409Z,12.18
2023-02-06T09:45:30.665Z,12.32
2023-02-06T09:48:34.496Z,12.39
2023-02-06T09:51:42.355Z,12.53
2023-02-06T09:54:47.752Z,12.61
2023-02-06T09:57:52.861Z,12.76
2023-02-06T10:01:06.846Z,12.86
2023-02-06T10:04:22.480Z,12.98
2023-02-06T10:07:44.939Z,13.05
2023-02-06T10:10:50.031Z,13.02
2023-02-06T10:13:55.044Z,12.93
2023-02-06T10:17:00.861Z,12.98
2023-02-06T10:20:05.937Z,13.17
2023-02-06T10:23:13.504Z,13.26
2023-02-06T10:26:18.191Z,13.41
2023-02-06T10:29:24.653Z,13.53
2023-02-06T10:32:35.832Z,13.68
2023-02-06T10:35:44.228Z,13.81
2023-02-06T10:39:12.781Z,13.59
2023-02-06T10:42:17.676Z,13.69
2023-02-06T10:45:30.737Z,13.35
2023-02-06T10:48:37.167Z,12.85
2023-02-06T10:51:42.404Z,12.30
2023-02-06T10:54:48.520Z,11.79
2023-02-06T10:57:54.736Z,11.56
2023-02-06T11:00:57.349Z,11.41
2023-02-06T11:04:04.597Z,11.29
2023-02-06T11:07:09.212Z,11.43
2023-02-06T11:10:13.567Z,11.45
2023-02-06T11:13:21.486Z,11.23
2023-02-06T11:16:26.031Z,11.13
2023-02-06T11:19:32.116Z,11.16
2023-02-06T11:22:44.283Z,11.39
2023-02-06T11:25:58.825Z,11.32
2023-02-06T11:29:03.393Z,11.17
2023-02-06T11:32:06.745Z,11.26
2023-02-06T11:35:21.748Z,11.38
2023-02-06T11:38:25.708Z,11.48
2023-02-06T11:41:28.329Z,11.63
2023-02-06T11:44:37.946Z,12.01
2023-02-06T11:47:40.486Z,12.39
2023-02-06T11:50:44.413Z,12.41
2023-02-06T11:53:56.733Z,12.45
2023-02-06T11:57:04.845Z,12.29
2023-02-06T12:00:20.807Z,12.19
2023-02-06T12:03:28.351Z,12.34
2023-02-06T12:06:33.692Z,12.29
2023-02-06T12:09:36.228Z,11.97
2023-02-06T12:12:40.682Z,11.87
2023-02-06T12:15:47.330Z,11.76
2023-02-06T12:18:50.951Z,11.83
2023-02-06T12:21:56.270Z,11.66
2023-02-06T12:25:00.037Z,11.56
2023-02-06T12:28:05.679Z,11.44
2023-02-06T12:31:10.442Z,11.80
2023-02-06T12:34:14.908Z,12.02
2023-02-06T12:37:22.139Z,11.83
2023-02-06T12:40:36.136Z,11.46
2023-02-06T12:43:38.890Z,11.35
2023-02-06T12:46:41.501Z,11.55
2023-02-06T12:49:50.038Z,11.78
2023-02-06T12:52:56.593Z,11.75
2023-02-06T12:56:02.142Z,11.97
2023-02-06T12:59:15.535Z,12.31
2023-02-06T13:02:22.311Z,12.64
2023-02-06T13:05:27.637Z,12.70
2023-02-06T13:08:43.602Z,12.34
2023-02-06T13:11:46.164Z,12.44
2023-02-06T13:14:50.179Z,12.46
2023-02-06T13:17:54.215Z,12.25
2023-02-06T13:21:16.699Z,12.12
2023-02-06T13:24:21.220Z,12.25
2023-02-06T13:27:24.626Z,12.39
2023-02-06T13:30:46.447Z,12.38
2023-02-06T13:33:49.402Z,12.22
2023-02-06T13:36:55.170Z,11.97
2023-02-06T13:40:20.886Z,11.76
2023-02-06T13:43:26.642Z,11.49
2023-02-06T13:46:39.659Z,11.25
2023-02-06T13:50:26.367Z,10.98
2023-02-06T13:53:36.011Z,10.73
2023-02-06T13:56:46.182Z,10.59
2023-02-06T13:59:50.377Z,10.52
2023-02-06T14:02:55.218Z,10.43
2023-02-06T14:06:01.116Z,10.47
2023-02-06T14:09:09.427Z,10.44
2023-02-06T14:12:32.891Z,10.51
2023-02-06T14:15:39.446Z,10.62
2023-02-06T14:18:45.466Z,10.57
2023-02-06T14:21:53.020Z,10.34
2023-02-06T14:25:05.268Z,10.24
2023-02-06T14:28:15.228Z,10.21
2023-02-06T14:31:24.661Z,10.33
2023-02-06T14:34:35.485Z,10.46
2023-02-06T14:37:55.181Z,10.41
2023-02-06T14:40:59.261Z,10.49
2023-02-06T14:44:03.228Z,10.57
2023-02-06T14:47:05.825Z,10.52
2023-02-06T14:50:09.102Z,10.55
2023-02-06T14:53:18.674Z,10.57
2023-02-06T14:56:26.191Z,10.57
2023-02-06T14:59:30.446Z,10.46
2023-02-06T15:02:36.981Z,10.41
2023-02-06T15:05:39.508Z,10.45
2023-02-06T15:08:48.394Z,10.51
2023-02-06T15:11:51.752Z,10.63
2023-02-06T15:14:56.548Z,10.64
2023-02-06T15:18:00.320Z,10.69
2023-02-06T15:21:03.647Z,10.67
2023-02-06T15:24:09.128Z,10.65
2023-02-06T15:27:15.763Z,10.68
2023-02-06T15:30:21.502Z,10.67
2023-02-06T15:33:27.585Z,10.66
2023-02-06T15:36:31.866Z,10.61
2023-02-06T15:39:34.449Z,10.60
2023-02-06T15:42:37.066Z,10.43
2023-02-06T15:45:41.530Z,10.21
2023-02-06T15:48:50.458Z,9.94
2023-02-06T15:51:53.967Z,9.76
2023-02-06T15:54:58.063Z,9.75
2023-02-06T15:58:01.482Z,9.67
2023-02-06T16:01:05.918Z,9.62
2023-02-06T16:04:10.151Z,9.50
2023-02-06T16:07:14.192Z,9.38
2023-02-06T16:10:21.314Z,9.29
2023-02-06T16:13:26.488Z,9.17
2023-02-06T16:16:30.412Z,9.13
2023-02-06T16:19:42.181Z,9.18
2023-02-06T16:22:44.712Z,9.19
2023-02-06T16:25:47.368Z,9.18
2023-02-06T16:28:57.872Z,9.07
2023-02-06T16:32:02.834Z,9.20
2023-02-06T16:35:05.814Z,9.18
2023-02-06T16:38:10.137Z,9.14
2023-02-06T16:41:25.120Z,9.06
2023-02-06T16:44:42.993Z,9.00
2023-02-06T16:47:48.097Z,8.96
2023-02-06T16:50:50.675Z,8.98
2023-02-06T16:53:53.366Z,9.00
2023-02-06T16:56:57.017Z,9.02
2023-02-06T16:59:59.658Z,9.04
2023-02-06T17:03:03.570Z,9.00
2023-02-06T17:06:06.486Z,8.97
2023-02-06T17:09:10.964Z,8.98
2023-02-06T17:12:14.718Z,9.00
2023-02-06T17:15:17.943Z,9.03
2023-02-06T17:18:22.512Z,9.04
2023-02-06T17:21:27.299Z,9.04
2023-02-06T17:24:29.863Z,9.02
2023-02-06T17:27:32.403Z,9.01
2023-02-06T17:30:35.839Z,8.99
2023-02-06T17:33:39.936Z,8.94
2023-02-06T17:36:43.097Z,8.87
2023-02-06T17:39:45.678Z,8.82
2023-02-06T17:42:48.735Z,8.75
2023-02-06T17:45:51.290Z,8.71
2023-02-06T17:48:55.166Z,8.70
2023-02-06T17:51:57.695Z,8.69
2023-02-06T17:55:00.269Z,8.63
2023-02-06T17:58:02.933Z,8.57
2023-02-06T18:01:05.564Z,8.56
2023-02-06T18:04:12.554Z,8.54
2023-02-06T18:07:15.150Z,8.48
2023-02-06T18:10:17.881Z,8.47
2023-02-06T18:13:21.084Z,8.45
2023-02-06T18:16:24.963Z,8.42
2023-02-06T18:19:28.902Z,8.40
2023-02-06T18:22:38.085Z,8.33
2023-02-06T18:25:43.154Z,8.16
2023-02-06T18:28:45.991Z,7.95
2023-02-06T18:31:48.670Z,7.80
2023-02-06T18:34:52.601Z,7.69
2023-02-06T18:37:55.392Z,7.63
2023-02-06T18:41:02.896Z,7.59
2023-02-06T18:44:04.850Z,7.54
2023-02-06T18:47:07.426Z,7.41
2023-02-06T18:50:11.455Z,7.34
2023-02-06T18:53:14.085Z,7.27
2023-02-06T18:56:16.748Z,7.19
2023-02-06T18:59:19.357Z,7.09
2023-02-06T19:02:22.047Z,6.99
2023-02-06T19:05:25.988Z,6.97
2023-02-06T19:08:28.556Z,6.94
2023-02-06T19:11:31.080Z,6.95
2023-02-06T19:14:33.677Z,6.91
2023-02-06T19:17:36.233Z,6.88
2023-02-06T19:20:43.285Z,6.86
2023-02-06T19:23:46.354Z,6.82
2023-02-06T19:26:48.951Z,6.81
2023-02-06T19:29:51.500Z,6.76
2023-02-06T19:32:54.084Z,6.77
2023-02-06T19:35:58.017Z,6.75
2023-02-06T19:39:01.507Z,6.72
2023-02-06T19:42:06.615Z,6.66
2023-02-06T19:45:09.511Z,6.60
2023-02-06T19:48:13.744Z,6.51
2023-02-06T19:51:20.138Z,6.41
2023-02-06T19:54:22.732Z,6.36
2023-02-06T19:57:25.263Z,6.31
2023-02-06T20:00:27.878Z,6.25
2023-02-06T20:03:30.701Z,6.21
2023-02-06T20:06:35.424Z,6.15
2023-02-06T20:09:41.676Z,6.11
2023-02-06T20:12:44.277Z,6.05
2023-02-06T20:15:46.896Z,5.99
2023-02-06T20:18:49.446Z,5.95
2023-02-06T20:21:54.348Z,5.90
2023-02-06T20:24:56.965Z,5.86
2023-02-06T20:27:59.970Z,5.83
2023-02-06T20:31:08.500Z,5.76
2023-02-06T20:34:11.177Z,5.69
2023-02-06T20:37:17.579Z,5.67
2023-02-06T20:40:20.277Z,5.63
2023-02-06T20:43:22.918Z,5.61
2023-02-06T20:46:26.379Z,5.57
2023-02-06T20:49:31.221Z,5.56
2023-02-06T20:52:35.313Z,5.53
2023-02-06T20:55:41.516Z,5.49
2023-02-06T20:58:44.237Z,5.44
2023-02-06T21:01:46.785Z,5.49
2023-02-06T21:04:52.047Z,5.47
2023-02-06T21:07:57.590Z,5.46
2023-02-06T21:11:00.271Z,5.45
2023-02-06T21:14:03.669Z,5.45
2023-02-06T21:17:06.224Z,5.45
2023-02-06T21:20:09.745Z,5.40
2023-02-06T21:23:13.724Z,5.36
2023-02-06T21:26:17.521Z,5.30
2023-02-06T21:29:22.847Z,5.30
2023-02-06T21:32:25.476Z,5.26
2023-02-06T21:35:30.202Z,5.14
2023-02-06T21:38:34.213Z,5.01
2023-02-06T21:41:36.824Z,4.86
2023-02-06T21:44:39.366Z,4.77
2023-02-06T21:47:42.047Z,4.72
2023-02-06T21:50:44.969Z,4.70
2023-02-06T21:53:48.910Z,4.68
2023-02-06T21:56:51.628Z,4.67
2023-02-06T21:59:54.150Z,4.67
2023-02-06T22:02:56.741Z,4.66
2023-02-06T22:06:07.326Z,4.68
2023-02-06T22:09:16.252Z,4.70
2023-02-06T22:12:18.848Z,4.67
2023-02-06T22:15:21.478Z,4.65
2023-02-06T22:18:24.057Z,4.60
2023-02-06T22:21:27.443Z,4.56
2023-02-06T22:24:31.322Z,4.56
2023-02-06T22:27:33.933Z,4.55
2023-02-06T22:30:36.567Z,4.53
2023-02-06T22:33:39.250Z,4.51
2023-02-06T22:36:42.693Z,4.48
2023-02-06T22:39:46.840Z,4.32
2023-02-06T22:42:49.375Z,4.47
2023-02-06T22:45:51.961Z,4.46
2023-02-06T22:48:54.523Z,4.43
2023-02-06T22:51:57.872Z,4.41
2023-02-06T22:55:03.175Z,4.39
2023-02-06T22:58:05.724Z,4.38
2023-02-06T23:01:08.288Z,4.33
2023-02-06T23:04:12.411Z,4.23
2023-02-06T23:07:15.087Z,4.19
2023-02-06T23:10:19.483Z,4.15
2023-02-06T23:13:22.088Z,4.14
2023-02-06T23:16:24.857Z,4.09
2023-02-06T23:19:27.413Z,4.07
2023-02-06T23:22:29.941Z,4.05
2023-02-06T23:25:33.889Z,4.06
2023-02-06T23:28:36.475Z,4.06
2023-02-06T23:31:39.054Z,4.06
2023-02-06T23:34:41.589Z,4.07
2023-02-06T23:37:44.138Z,4.08
2023-02-06T23:40:48.660Z,4.05
2023-02-06T23:43:51.506Z,4.03
2023-02-06T23:46:54.266Z,3.99
2023-02-06T23:49:56.845Z,4.00
2023-02-06T23:52:59.425Z,3.98
2023-02-06T23:56:03.782Z,3.95
2023-02-06T23:59:06.573Z,3.93
